sensor_id;sensor_type;location;lat;lon;timestamp;pressure;altitude;pressure_sealevel;temperature;humidity
55301;BME280;58302;51.446;-2.000;2022-10-16T00:01:05;99610.84;;;10.04;100.00
55301;BME280;58302;51.446;-2.000;2022-10-16T00:03:32;99613.44;;;10.19;100.00
55301;BME280;58302;51.446;-2.000;2022-10-16T00:05:59;99609.59;;;10.31;100.00
55301;BME280;58302;51.446;-2.000;2022-10-16T00:08:26;99616.00;;;10.45;100.00
55301;BME280;58302;51.446;-2.000;2022-10-16T00:10:52;99623.53;;;10.53;100.00
55301;BME280;58302;51.446;-2.000;2022-10-16T00:13:18;99620.25;;;10.56;100.00
55301;BME280;58302;51.446;-2.000;2022-10-16T00:15:45;99624.56;;;10.57;100.00
55301;BME280;58302;51.446;-2.000;2022-10-16T00:18:12;99627.00;;;10.59;100.00
55301;BME280;58302;51.446;-2.000;2022-10-16T00:20:40;99626.78;;;10.55;100.00
55301;BME280;58302;51.446;-2.000;2022-10-16T00:23:05;99629.53;;;10.50;100.00
55301;BME280;58302;51.446;-2.000;2022-10-16T00:25:32;99624.97;;;10.45;100.00
55301;BME280;58302;51.446;-2.000;2022-10-16T00:28:02;99627.47;;;10.37;100.00
55301;BME280;58302;51.446;-2.000;2022-10-16T00:30:29;99622.91;;;10.27;100.00
55301;BME280;58302;51.446;-2.000;2022-10-16T00:32:55;99622.41;;;10.20;100.00
55301;BME280;58302;51.446;-2.000;2022-10-16T00:35:21;99609.63;;;10.25;100.00
55301;BME280;58302;51.446;-2.000;2022-10-16T00:37:47;99605.25;;;10.29;100.00
55301;BME280;58302;51.446;-2.000;2022-10-16T00:40:13;99621.25;;;10.31;100.00
55301;BME280;58302;51.446;-2.000;2022-10-16T00:42:39;99613.38;;;10.35;100.00
55301;BME280;58302;51.446;-2.000;2022-10-16T00:45:07;99608.94;;;10.44;100.00
55301;BME280;58302;51.446;-2.000;2022-10-16T00:50:06;99615.19;;;10.44;100.00
55301;BME280;58302;51.446;-2.000;2022-10-16T00:52:34;99626.34;;;10.38;100.00
55301;BME280;58302;51.446;-2.000;2022-10-16T00:55:02;99625.84;;;10.36;100.00
55301;BME280;58302;51.446;-2.000;2022-10-16T00:57:29;99639.16;;;10.32;100.00
55301;BME280;58302;51.446;-2.000;2022-10-16T00:59:55;99626.47;;;10.27;100.00
55301;BME280;58302;51.446;-2.000;2022-10-16T01:02:22;99625.63;;;10.27;100.00
55301;BME280;58302;51.446;-2.000;2022-10-16T01:04:50;99630.50;;;10.30;100.00
55301;BME280;58302;51.446;-2.000;2022-10-16T01:07:34;99640.22;;;10.36;100.00
55301;BME280;58302;51.446;-2.000;2022-10-16T01:15:30;99638.94;;;10.28;100.00
55301;BME280;58302;51.446;-2.000;2022-10-16T01:20:42;99647.13;;;10.18;100.00
55301;BME280;58302;51.446;-2.000;2022-10-16T01:29:03;99635.69;;;10.26;100.00
55301;BME280;58302;51.446;-2.000;2022-10-16T01:31:34;99645.22;;;10.19;100.00
55301;BME280;58302;51.446;-2.000;2022-10-16T01:34:05;99647.72;;;10.10;100.00
55301;BME280;58302;51.446;-2.000;2022-10-16T01:36:41;99656.94;;;10.09;100.00
55301;BME280;58302;51.446;-2.000;2022-10-16T01:39:11;99654.00;;;10.06;100.00
55301;BME280;58302;51.446;-2.000;2022-10-16T01:41:43;99668.16;;;9.97;100.00
55301;BME280;58302;51.446;-2.000;2022-10-16T01:44:14;99651.63;;;9.94;100.00
55301;BME280;58302;51.446;-2.000;2022-10-16T01:46:43;99669.81;;;9.88;100.00
55301;BME280;58302;51.446;-2.000;2022-10-16T01:49:11;99671.25;;;9.81;100.00
55301;BME280;58302;51.446;-2.000;2022-10-16T01:51:39;99670.16;;;9.76;100.00
55301;BME280;58302;51.446;-2.000;2022-10-16T01:54:08;99679.41;;;9.70;100.00
55301;BME280;58302;51.446;-2.000;2022-10-16T01:56:36;99667.75;;;9.70;100.00
55301;BME280;58302;51.446;-2.000;2022-10-16T01:59:09;99680.25;;;9.66;100.00
55301;BME280;58302;51.446;-2.000;2022-10-16T02:01:39;99685.69;;;9.61;100.00
55301;BME280;58302;51.446;-2.000;2022-10-16T02:04:14;99691.97;;;9.56;100.00
55301;BME280;58302;51.446;-2.000;2022-10-16T02:06:41;99683.84;;;9.51;100.00
55301;BME280;58302;51.446;-2.000;2022-10-16T02:09:08;99689.31;;;9.46;100.00
55301;BME280;58302;51.446;-2.000;2022-10-16T02:11:34;99681.69;;;9.43;100.00
55301;BME280;58302;51.446;-2.000;2022-10-16T02:14:04;99697.97;;;9.43;100.00
55301;BME280;58302;51.446;-2.000;2022-10-16T02:16:45;99702.88;;;9.41;100.00
55301;BME280;58302;51.446;-2.000;2022-10-16T02:19:15;99711.00;;;9.36;100.00
55301;BME280;58302;51.446;-2.000;2022-10-16T02:24:33;99705.00;;;9.44;100.00
55301;BME280;58302;51.446;-2.000;2022-10-16T02:29:39;99724.00;;;9.39;100.00
55301;BME280;58302;51.446;-2.000;2022-10-16T02:32:07;99731.34;;;9.33;100.00
55301;BME280;58302;51.446;-2.000;2022-10-16T02:34:36;99720.25;;;9.35;100.00
55301;BME280;58302;51.446;-2.000;2022-10-16T02:37:04;99736.50;;;9.35;100.00
55301;BME280;58302;51.446;-2.000;2022-10-16T02:39:31;99736.78;;;9.28;100.00
55301;BME280;58302;51.446;-2.000;2022-10-16T02:41:57;99746.81;;;9.22;100.00
55301;BME280;58302;51.446;-2.000;2022-10-16T02:44:23;99745.19;;;9.21;100.00
55301;BME280;58302;51.446;-2.000;2022-10-16T02:46:49;99748.47;;;9.18;100.00
55301;BME280;58302;51.446;-2.000;2022-10-16T02:49:15;99743.31;;;9.17;100.00
55301;BME280;58302;51.446;-2.000;2022-10-16T02:51:41;99750.91;;;9.15;100.00
55301;BME280;58302;51.446;-2.000;2022-10-16T02:54:07;99748.47;;;9.13;100.00
55301;BME280;58302;51.446;-2.000;2022-10-16T02:56:32;99750.09;;;9.04;100.00
55301;BME280;58302;51.446;-2.000;2022-10-16T02:58:58;99759.03;;;9.00;100.00
55301;BME280;58302;51.446;-2.000;2022-10-16T03:01:24;99763.41;;;8.95;100.00
55301;BME280;58302;51.446;-2.000;2022-10-16T03:03:50;99767.44;;;8.93;100.00
55301;BME280;58302;51.446;-2.000;2022-10-16T03:06:16;99776.38;;;8.83;100.00
55301;BME280;58302;51.446;-2.000;2022-10-16T03:08:42;99783.16;;;8.76;100.00
55301;BME280;58302;51.446;-2.000;2022-10-16T03:11:08;99780.97;;;8.67;100.00
55301;BME280;58302;51.446;-2.000;2022-10-16T03:13:34;99783.69;;;8.57;100.00
55301;BME280;58302;51.446;-2.000;2022-10-16T03:16:00;99777.44;;;8.57;100.00
55301;BME280;58302;51.446;-2.000;2022-10-16T03:18:26;99782.59;;;8.53;100.00
55301;BME280;58302;51.446;-2.000;2022-10-16T03:20:52;99793.13;;;8.44;100.00
55301;BME280;58302;51.446;-2.000;2022-10-16T03:23:18;99799.34;;;8.45;100.00
55301;BME280;58302;51.446;-2.000;2022-10-16T03:25:44;99800.97;;;8.41;100.00
55301;BME280;58302;51.446;-2.000;2022-10-16T03:28:10;99807.50;;;8.50;100.00
55301;BME280;58302;51.446;-2.000;2022-10-16T03:30:35;99806.94;;;8.48;100.00
55301;BME280;58302;51.446;-2.000;2022-10-16T03:33:02;99813.69;;;8.40;100.00
55301;BME280;58302;51.446;-2.000;2022-10-16T03:35:28;99813.38;;;8.32;100.00
55301;BME280;58302;51.446;-2.000;2022-10-16T03:37:54;99828.22;;;8.29;100.00
55301;BME280;58302;51.446;-2.000;2022-10-16T03:40:20;99825.25;;;8.26;100.00
55301;BME280;58302;51.446;-2.000;2022-10-16T03:42:46;99819.88;;;8.31;100.00
55301;BME280;58302;51.446;-2.000;2022-10-16T03:45:12;99828.81;;;8.31;100.00
55301;BME280;58302;51.446;-2.000;2022-10-16T03:47:38;99836.66;;;8.33;100.00
55301;BME280;58302;51.446;-2.000;2022-10-16T03:50:04;99849.38;;;8.32;100.00
55301;BME280;58302;51.446;-2.000;2022-10-16T03:52:30;99857.75;;;8.26;100.00
55301;BME280;58302;51.446;-2.000;2022-10-16T03:54:57;99859.63;;;8.20;100.00
55301;BME280;58302;51.446;-2.000;2022-10-16T03:57:23;99866.34;;;8.17;100.00
55301;BME280;58302;51.446;-2.000;2022-10-16T03:59:49;99860.72;;;8.24;100.00
55301;BME280;58302;51.446;-2.000;2022-10-16T04:02:16;99863.16;;;8.26;100.00
55301;BME280;58302;51.446;-2.000;2022-10-16T04:04:42;99870.19;;;8.22;100.00
55301;BME280;58302;51.446;-2.000;2022-10-16T04:07:08;99868.56;;;8.26;100.00
55301;BME280;58302;51.446;-2.000;2022-10-16T04:09:34;99871.00;;;8.27;100.00
55301;BME280;58302;51.446;-2.000;2022-10-16T04:12:00;99873.97;;;8.21;100.00
55301;BME280;58302;51.446;-2.000;2022-10-16T04:14:26;99871.78;;;8.17;100.00
55301;BME280;58302;51.446;-2.000;2022-10-16T04:16:52;99883.69;;;8.16;100.00
55301;BME280;58302;51.446;-2.000;2022-10-16T04:19:18;99901.81;;;8.16;100.00
55301;BME280;58302;51.446;-2.000;2022-10-16T04:21:44;99895.63;;;8.21;100.00
55301;BME280;58302;51.446;-2.000;2022-10-16T04:24:11;99904.25;;;8.17;100.00
55301;BME280;58302;51.446;-2.000;2022-10-16T04:26:38;99904.53;;;8.16;100.00
55301;BME280;58302;51.446;-2.000;2022-10-16T04:29:04;99906.34;;;8.05;100.00
55301;BME280;58302;51.446;-2.000;2022-10-16T04:31:30;99906.59;;;7.99;100.00
55301;BME280;58302;51.446;-2.000;2022-10-16T04:33:55;99907.09;;;7.96;100.00
55301;BME280;58302;51.446;-2.000;2022-10-16T04:36:21;99918.69;;;7.91;100.00
55301;BME280;58302;51.446;-2.000;2022-10-16T04:38:47;99908.41;;;7.88;100.00
55301;BME280;58302;51.446;-2.000;2022-10-16T04:41:13;99914.09;;;7.86;100.00
55301;BME280;58302;51.446;-2.000;2022-10-16T04:43:39;99921.09;;;7.82;100.00
55301;BME280;58302;51.446;-2.000;2022-10-16T04:46:05;99923.00;;;7.82;100.00
55301;BME280;58302;51.446;-2.000;2022-10-16T04:48:32;99923.75;;;7.77;100.00
55301;BME280;58302;51.446;-2.000;2022-10-16T04:50:59;99924.28;;;7.74;100.00
55301;BME280;58302;51.446;-2.000;2022-10-16T04:53:25;99930.75;;;7.73;100.00
55301;BME280;58302;51.446;-2.000;2022-10-16T04:55:50;99929.94;;;7.73;100.00
55301;BME280;58302;51.446;-2.000;2022-10-16T04:58:17;99935.34;;;7.73;100.00
55301;BME280;58302;51.446;-2.000;2022-10-16T05:00:44;99942.78;;;7.55;100.00
55301;BME280;58302;51.446;-2.000;2022-10-16T05:03:12;99953.19;;;7.36;100.00
55301;BME280;58302;51.446;-2.000;2022-10-16T05:05:43;99964.59;;;7.17;100.00
55301;BME280;58302;51.446;-2.000;2022-10-16T05:08:10;99961.78;;;7.06;100.00
55301;BME280;58302;51.446;-2.000;2022-10-16T05:10:36;99977.34;;;6.94;100.00
55301;BME280;58302;51.446;-2.000;2022-10-16T05:13:02;99972.56;;;6.79;100.00
55301;BME280;58302;51.446;-2.000;2022-10-16T05:15:28;99983.34;;;6.79;100.00
55301;BME280;58302;51.446;-2.000;2022-10-16T05:17:55;99982.22;;;6.75;100.00
55301;BME280;58302;51.446;-2.000;2022-10-16T05:20:22;99986.59;;;6.76;100.00
55301;BME280;58302;51.446;-2.000;2022-10-16T05:22:48;99985.78;;;6.76;100.00
55301;BME280;58302;51.446;-2.000;2022-10-16T05:25:14;99991.19;;;6.81;100.00
55301;BME280;58302;51.446;-2.000;2022-10-16T05:27:40;99998.34;;;6.70;100.00
55301;BME280;58302;51.446;-2.000;2022-10-16T05:30:07;99996.84;;;6.57;100.00
55301;BME280;58302;51.446;-2.000;2022-10-16T05:32:33;100010.28;;;6.52;100.00
55301;BME280;58302;51.446;-2.000;2022-10-16T05:34:59;100010.53;;;6.51;100.00
55301;BME280;58302;51.446;-2.000;2022-10-16T05:37:27;100018.97;;;6.54;100.00
55301;BME280;58302;51.446;-2.000;2022-10-16T05:39:53;100022.22;;;6.56;100.00
55301;BME280;58302;51.446;-2.000;2022-10-16T05:42:19;100031.13;;;6.57;100.00
55301;BME280;58302;51.446;-2.000;2022-10-16T05:44:45;100034.84;;;6.51;100.00
55301;BME280;58302;51.446;-2.000;2022-10-16T05:47:12;100031.66;;;6.37;100.00
55301;BME280;58302;51.446;-2.000;2022-10-16T05:49:38;100034.06;;;6.17;100.00
55301;BME280;58302;51.446;-2.000;2022-10-16T05:52:04;100045.59;;;5.95;100.00
55301;BME280;58302;51.446;-2.000;2022-10-16T05:54:30;100046.84;;;5.76;100.00
55301;BME280;58302;51.446;-2.000;2022-10-16T05:56:56;100057.94;;;5.63;100.00
55301;BME280;58302;51.446;-2.000;2022-10-16T05:59:22;100060.69;;;5.51;100.00
55301;BME280;58302;51.446;-2.000;2022-10-16T06:01:48;100060.16;;;5.37;100.00
55301;BME280;58302;51.446;-2.000;2022-10-16T06:04:14;100055.88;;;5.24;100.00
55301;BME280;58302;51.446;-2.000;2022-10-16T06:06:40;100057.09;;;5.17;100.00
55301;BME280;58302;51.446;-2.000;2022-10-16T06:09:06;100060.81;;;5.16;100.00
55301;BME280;58302;51.446;-2.000;2022-10-16T06:11:32;100063.66;;;5.09;100.00
55301;BME280;58302;51.446;-2.000;2022-10-16T06:14:01;100074.44;;;5.09;100.00
55301;BME280;58302;51.446;-2.000;2022-10-16T06:16:28;100070.78;;;5.15;100.00
55301;BME280;58302;51.446;-2.000;2022-10-16T06:18:55;100071.69;;;5.21;100.00
55301;BME280;58302;51.446;-2.000;2022-10-16T06:21:23;100065.94;;;5.29;100.00
55301;BME280;58302;51.446;-2.000;2022-10-16T06:23:55;100070.78;;;5.44;100.00
55301;BME280;58302;51.446;-2.000;2022-10-16T06:26:24;100075.16;;;5.45;100.00
55301;BME280;58302;51.446;-2.000;2022-10-16T06:28:50;100077.97;;;5.38;100.00
55301;BME280;58302;51.446;-2.000;2022-10-16T06:31:17;100074.69;;;5.36;100.00
55301;BME280;58302;51.446;-2.000;2022-10-16T06:33:43;100079.66;;;5.27;100.00
55301;BME280;58302;51.446;-2.000;2022-10-16T06:36:15;100077.56;;;5.18;100.00
55301;BME280;58302;51.446;-2.000;2022-10-16T06:38:43;100086.84;;;5.10;100.00
55301;BME280;58302;51.446;-2.000;2022-10-16T06:41:17;100093.53;;;5.08;100.00
55301;BME280;58302;51.446;-2.000;2022-10-16T06:43:44;100090.72;;;5.02;100.00
55301;BME280;58302;51.446;-2.000;2022-10-16T06:46:12;100090.63;;;4.97;100.00
55301;BME280;58302;51.446;-2.000;2022-10-16T06:48:38;100095.44;;;4.95;100.00
55301;BME280;58302;51.446;-2.000;2022-10-16T06:51:19;100093.78;;;4.94;100.00
55301;BME280;58302;51.446;-2.000;2022-10-16T06:53:47;100103.72;;;4.94;100.00
55301;BME280;58302;51.446;-2.000;2022-10-16T06:56:20;100114.16;;;5.02;100.00
55301;BME280;58302;51.446;-2.000;2022-10-16T06:58:47;100116.47;;;5.10;100.00
55301;BME280;58302;51.446;-2.000;2022-10-16T07:01:15;100119.72;;;5.24;100.00
55301;BME280;58302;51.446;-2.000;2022-10-16T07:03:42;100124.25;;;5.35;100.00
55301;BME280;58302;51.446;-2.000;2022-10-16T07:06:10;100133.84;;;5.43;100.00
55301;BME280;58302;51.446;-2.000;2022-10-16T07:08:38;100140.34;;;5.59;100.00
55301;BME280;58302;51.446;-2.000;2022-10-16T07:11:07;100142.28;;;5.75;100.00
55301;BME280;58302;51.446;-2.000;2022-10-16T07:13:34;100150.19;;;5.93;100.00
55301;BME280;58302;51.446;-2.000;2022-10-16T07:16:12;100158.75;;;6.19;100.00
55301;BME280;58302;51.446;-2.000;2022-10-16T07:18:38;100154.59;;;6.45;100.00
55301;BME280;58302;51.446;-2.000;2022-10-16T07:21:10;100158.72;;;6.86;100.00
55301;BME280;58302;51.446;-2.000;2022-10-16T07:23:37;100160.69;;;7.29;100.00
55301;BME280;58302;51.446;-2.000;2022-10-16T07:26:04;100160.06;;;7.66;100.00
55301;BME280;58302;51.446;-2.000;2022-10-16T07:28:31;100163.97;;;8.02;100.00
55301;BME280;58302;51.446;-2.000;2022-10-16T07:31:06;100177.91;;;8.43;100.00
55301;BME280;58302;51.446;-2.000;2022-10-16T07:33:34;100173.25;;;8.70;100.00
55301;BME280;58302;51.446;-2.000;2022-10-16T07:36:00;100171.03;;;9.05;100.00
55301;BME280;58302;51.446;-2.000;2022-10-16T07:38:35;100176.69;;;9.40;100.00
55301;BME280;58302;51.446;-2.000;2022-10-16T07:41:06;100173.28;;;9.81;100.00
55301;BME280;58302;51.446;-2.000;2022-10-16T07:43:33;100174.44;;;10.10;100.00
55301;BME280;58302;51.446;-2.000;2022-10-16T07:45:59;100175.88;;;10.48;100.00
55301;BME280;58302;51.446;-2.000;2022-10-16T07:48:31;100176.69;;;10.69;100.00
55301;BME280;58302;51.446;-2.000;2022-10-16T07:51:02;100167.16;;;10.87;100.00
55301;BME280;58302;51.446;-2.000;2022-10-16T07:53:28;100156.25;;;11.02;100.00
55301;BME280;58302;51.446;-2.000;2022-10-16T07:56:03;100170.63;;;11.23;100.00
55301;BME280;58302;51.446;-2.000;2022-10-16T07:58:29;100169.44;;;11.50;100.00
55301;BME280;58302;51.446;-2.000;2022-10-16T08:00:56;100173.19;;;11.64;100.00
55301;BME280;58302;51.446;-2.000;2022-10-16T08:03:23;100181.00;;;11.81;100.00
55301;BME280;58302;51.446;-2.000;2022-10-16T08:05:49;100185.03;;;12.04;100.00
55301;BME280;58302;51.446;-2.000;2022-10-16T08:08:17;100192.44;;;12.37;100.00
55301;BME280;58302;51.446;-2.000;2022-10-16T08:10:43;100196.84;;;12.62;100.00
55301;BME280;58302;51.446;-2.000;2022-10-16T08:13:09;100204.91;;;12.78;100.00
55301;BME280;58302;51.446;-2.000;2022-10-16T08:15:35;100201.81;;;12.89;100.00
55301;BME280;58302;51.446;-2.000;2022-10-16T08:18:03;100204.97;;;13.02;100.00
55301;BME280;58302;51.446;-2.000;2022-10-16T08:20:31;100215.88;;;13.02;100.00
55301;BME280;58302;51.446;-2.000;2022-10-16T08:22:58;100218.28;;;13.08;100.00
55301;BME280;58302;51.446;-2.000;2022-10-16T08:25:24;100224.59;;;13.04;100.00
55301;BME280;58302;51.446;-2.000;2022-10-16T08:27:50;100214.81;;;13.03;100.00
55301;BME280;58302;51.446;-2.000;2022-10-16T08:30:18;100223.44;;;13.10;100.00
55301;BME280;58302;51.446;-2.000;2022-10-16T08:32:44;100227.94;;;13.30;100.00
55301;BME280;58302;51.446;-2.000;2022-10-16T08:35:12;100226.84;;;13.55;100.00
55301;BME280;58302;51.446;-2.000;2022-10-16T08:37:38;100235.00;;;13.79;100.00
55301;BME280;58302;51.446;-2.000;2022-10-16T08:40:06;100223.94;;;14.13;100.00
55301;BME280;58302;51.446;-2.000;2022-10-16T08:45:43;100239.28;;;14.28;100.00
55301;BME280;58302;51.446;-2.000;2022-10-16T08:48:17;100233.47;;;14.34;100.00
55301;BME280;58302;51.446;-2.000;2022-10-16T08:50:47;100233.91;;;14.41;100.00
55301;BME280;58302;51.446;-2.000;2022-10-16T08:53:36;100242.75;;;14.33;100.00
55301;BME280;58302;51.446;-2.000;2022-10-16T08:56:05;100236.66;;;14.60;100.00
55301;BME280;58302;51.446;-2.000;2022-10-16T08:58:31;100237.94;;;15.00;100.00
55301;BME280;58302;51.446;-2.000;2022-10-16T09:01:00;100243.31;;;15.06;100.00
55301;BME280;58302;51.446;-2.000;2022-10-16T09:09:32;100249.56;;;15.52;100.00
55301;BME280;58302;51.446;-2.000;2022-10-16T09:16:57;100239.63;;;16.48;100.00
55301;BME280;58302;51.446;-2.000;2022-10-16T09:19:31;100239.69;;;16.70;96.51
55301;BME280;58302;51.446;-2.000;2022-10-16T09:22:04;100242.13;;;16.72;96.21
55301;BME280;58302;51.446;-2.000;2022-10-16T09:24:36;100240.75;;;17.05;95.39
55301;BME280;58302;51.446;-2.000;2022-10-16T09:27:02;100242.19;;;17.25;92.89
55301;BME280;58302;51.446;-2.000;2022-10-16T09:29:28;100249.75;;;17.28;89.98
55301;BME280;58302;51.446;-2.000;2022-10-16T09:31:57;100248.59;;;17.52;88.82
55301;BME280;58302;51.446;-2.000;2022-10-16T09:34:36;100251.66;;;17.50;89.18
55301;BME280;58302;51.446;-2.000;2022-10-16T09:37:09;100249.63;;;17.64;87.44
55301;BME280;58302;51.446;-2.000;2022-10-16T09:39:51;100250.03;;;17.49;90.92
55301;BME280;58302;51.446;-2.000;2022-10-16T09:42:23;100253.75;;;17.76;86.88
55301;BME280;58302;51.446;-2.000;2022-10-16T09:44:53;100251.66;;;17.90;85.46
55301;BME280;58302;51.446;-2.000;2022-10-16T09:47:42;100254.59;;;17.62;87.54
55301;BME280;58302;51.446;-2.000;2022-10-16T09:50:28;100257.22;;;17.68;86.89
55301;BME280;58302;51.446;-2.000;2022-10-16T09:53:23;100252.69;;;18.03;82.30
55301;BME280;58302;51.446;-2.000;2022-10-16T09:55:53;100261.63;;;18.26;81.98
55301;BME280;58302;51.446;-2.000;2022-10-16T09:58:23;100260.38;;;17.83;83.23
55301;BME280;58302;51.446;-2.000;2022-10-16T10:00:54;100258.75;;;17.43;88.36
55301;BME280;58302;51.446;-2.000;2022-10-16T10:03:41;100256.50;;;17.84;84.64
55301;BME280;58302;51.446;-2.000;2022-10-16T10:06:24;100253.06;;;18.62;78.41
55301;BME280;58302;51.446;-2.000;2022-10-16T10:09:00;100248.97;;;19.29;72.23
55301;BME280;58302;51.446;-2.000;2022-10-16T10:11:50;100245.63;;;19.53;65.59
55301;BME280;58302;51.446;-2.000;2022-10-16T10:14:30;100245.59;;;19.23;67.42
55301;BME280;58302;51.446;-2.000;2022-10-16T10:17:17;100256.22;;;19.89;66.03
55301;BME280;58302;51.446;-2.000;2022-10-16T10:25:12;100251.72;;;19.76;64.15
55301;BME280;58302;51.446;-2.000;2022-10-16T10:27:56;100255.06;;;19.43;66.26
55301;BME280;58302;51.446;-2.000;2022-10-16T10:36:04;100243.19;;;19.68;60.23
55301;BME280;58302;51.446;-2.000;2022-10-16T10:38:50;100241.88;;;19.66;62.94
55301;BME280;58302;51.446;-2.000;2022-10-16T10:49:44;100240.09;;;19.61;58.76
55301;BME280;58302;51.446;-2.000;2022-10-16T10:52:33;100242.91;;;19.91;58.73
55301;BME280;58302;51.446;-2.000;2022-10-16T11:03:27;100244.69;;;19.87;56.62
55301;BME280;58302;51.446;-2.000;2022-10-16T11:06:11;100248.69;;;19.68;57.39
55301;BME280;58302;51.446;-2.000;2022-10-16T11:08:45;100251.91;;;19.06;60.86
55301;BME280;58302;51.446;-2.000;2022-10-16T11:11:24;100251.00;;;18.67;65.68
55301;BME280;58302;51.446;-2.000;2022-10-16T11:14:23;100246.09;;;18.30;66.68
55301;BME280;58302;51.446;-2.000;2022-10-16T11:16:58;100245.06;;;17.91;72.60
55301;BME280;58302;51.446;-2.000;2022-10-16T11:25:19;100230.38;;;19.93;53.98
55301;BME280;58302;51.446;-2.000;2022-10-16T11:28:13;100220.19;;;20.36;50.08
55301;BME280;58302;51.446;-2.000;2022-10-16T11:30:44;100224.25;;;20.38;50.76
55301;BME280;58302;51.446;-2.000;2022-10-16T11:36:06;100221.50;;;20.59;48.24
55301;BME280;58302;51.446;-2.000;2022-10-16T11:41:41;100223.34;;;21.21;47.28
55301;BME280;58302;51.446;-2.000;2022-10-16T11:47:33;100238.19;;;19.53;49.56
55301;BME280;58302;51.446;-2.000;2022-10-16T11:50:13;100231.94;;;20.03;50.81
55301;BME280;58302;51.446;-2.000;2022-10-16T11:52:57;100230.88;;;20.46;48.73
55301;BME280;58302;51.446;-2.000;2022-10-16T11:55:32;100224.84;;;20.86;47.10
55301;BME280;58302;51.446;-2.000;2022-10-16T11:58:05;100219.94;;;21.03;47.13
55301;BME280;58302;51.446;-2.000;2022-10-16T12:00:59;100220.06;;;21.40;44.98
55301;BME280;58302;51.446;-2.000;2022-10-16T12:09:24;100221.47;;;20.17;47.77
55301;BME280;58302;51.446;-2.000;2022-10-16T12:11:51;100223.09;;;20.18;48.11
55301;BME280;58302;51.446;-2.000;2022-10-16T12:17:00;100214.16;;;19.15;51.04
55301;BME280;58302;51.446;-2.000;2022-10-16T12:19:29;100209.69;;;18.76;53.61
55301;BME280;58302;51.446;-2.000;2022-10-16T12:21:59;100208.59;;;18.68;55.54
55301;BME280;58302;51.446;-2.000;2022-10-16T12:24:37;100204.00;;;18.21;57.79
55301;BME280;58302;51.446;-2.000;2022-10-16T12:27:27;100212.91;;;17.60;64.00
55301;BME280;58302;51.446;-2.000;2022-10-16T12:30:04;100210.69;;;17.31;65.74
55301;BME280;58302;51.446;-2.000;2022-10-16T12:32:34;100212.78;;;17.26;68.43
55301;BME280;58302;51.446;-2.000;2022-10-16T12:35:02;100212.06;;;16.89;72.36
55301;BME280;58302;51.446;-2.000;2022-10-16T12:37:34;100207.94;;;16.78;77.53
55301;BME280;58302;51.446;-2.000;2022-10-16T12:40:36;100213.72;;;17.21;79.60
55301;BME280;58302;51.446;-2.000;2022-10-16T12:43:27;100211.56;;;17.89;75.89
55301;BME280;58302;51.446;-2.000;2022-10-16T12:48:36;100215.84;;;18.47;68.09
55301;BME280;58302;51.446;-2.000;2022-10-16T12:51:22;100222.81;;;18.71;66.50
55301;BME280;58302;51.446;-2.000;2022-10-16T12:56:51;100213.91;;;18.82;62.12
55301;BME280;58302;51.446;-2.000;2022-10-16T12:59:53;100214.03;;;19.03;63.22
55301;BME280;58302;51.446;-2.000;2022-10-16T13:28:00;100183.78;;;18.08;67.76
55301;BME280;58302;51.446;-2.000;2022-10-16T13:30:28;100175.19;;;17.92;68.41
55301;BME280;58302;51.446;-2.000;2022-10-16T13:33:00;100179.25;;;18.12;66.87
55301;BME280;58302;51.446;-2.000;2022-10-16T13:35:31;100183.94;;;18.11;67.12
55301;BME280;58302;51.446;-2.000;2022-10-16T13:38:16;100172.94;;;18.11;68.67
55301;BME280;58302;51.446;-2.000;2022-10-16T13:41:05;100165.63;;;18.07;69.96
55301;BME280;58302;51.446;-2.000;2022-10-16T13:43:52;100161.94;;;18.11;64.11
55301;BME280;58302;51.446;-2.000;2022-10-16T13:46:23;100158.03;;;17.95;64.41
55301;BME280;58302;51.446;-2.000;2022-10-16T13:49:03;100155.78;;;17.97;69.07
55301;BME280;58302;51.446;-2.000;2022-10-16T13:51:31;100157.88;;;18.00;68.88
55301;BME280;58302;51.446;-2.000;2022-10-16T13:53:58;100156.09;;;17.87;66.96
55301;BME280;58302;51.446;-2.000;2022-10-16T13:56:26;100156.41;;;17.77;67.48
55301;BME280;58302;51.446;-2.000;2022-10-16T13:59:05;100163.03;;;17.76;68.45
55301;BME280;58302;51.446;-2.000;2022-10-16T14:01:44;100145.66;;;17.67;67.04
55301;BME280;58302;51.446;-2.000;2022-10-16T14:04:12;100162.13;;;17.58;68.44
55301;BME280;58302;51.446;-2.000;2022-10-16T14:06:44;100166.75;;;17.31;72.99
55301;BME280;58302;51.446;-2.000;2022-10-16T14:09:25;100166.22;;;17.21;79.80
55301;BME280;58302;51.446;-2.000;2022-10-16T14:12:00;100163.41;;;17.12;78.04
55301;BME280;58302;51.446;-2.000;2022-10-16T14:14:27;100161.66;;;16.85;76.76
55301;BME280;58302;51.446;-2.000;2022-10-16T14:16:56;100161.63;;;16.76;79.44
55301;BME280;58302;51.446;-2.000;2022-10-16T14:19:25;100159.16;;;16.75;81.33
55301;BME280;58302;51.446;-2.000;2022-10-16T14:21:53;100167.50;;;16.70;83.59
55301;BME280;58302;51.446;-2.000;2022-10-16T14:24:32;100156.84;;;16.68;85.75
55301;BME280;58302;51.446;-2.000;2022-10-16T14:27:01;100167.56;;;16.56;89.98
55301;BME280;58302;51.446;-2.000;2022-10-16T14:29:29;100162.66;;;16.44;94.37
55301;BME280;58302;51.446;-2.000;2022-10-16T14:32:00;100164.19;;;16.37;98.38
55301;BME280;58302;51.446;-2.000;2022-10-16T14:34:35;100157.78;;;16.41;98.11
55301;BME280;58302;51.446;-2.000;2022-10-16T14:37:22;100155.59;;;16.29;99.25
55301;BME280;58302;51.446;-2.000;2022-10-16T14:39:50;100154.66;;;16.34;98.62
55301;BME280;58302;51.446;-2.000;2022-10-16T14:42:18;100144.25;;;16.45;97.55
55301;BME280;58302;51.446;-2.000;2022-10-16T14:44:46;100139.34;;;16.55;95.91
55301;BME280;58302;51.446;-2.000;2022-10-16T14:47:15;100143.00;;;16.51;95.92
55301;BME280;58302;51.446;-2.000;2022-10-16T14:49:42;100140.19;;;16.65;96.76
55301;BME280;58302;51.446;-2.000;2022-10-16T14:52:11;100118.09;;;16.70;95.40
55301;BME280;58302;51.446;-2.000;2022-10-16T14:54:38;100122.31;;;16.67;98.70
55301;BME280;58302;51.446;-2.000;2022-10-16T14:57:06;100128.38;;;16.55;100.00